createdAt,value
2023-03-25T00:01:33.557Z,96711.01
2023-03-25T00:04:05.901Z,96704.75
2023-03-25T00:07:07.061Z,96718.63
2023-03-25T00:09:37.873Z,96712.92
2023-03-25T00:12:10.671Z,96706.93
2023-03-25T00:14:46.823Z,96715.65
2023-03-25T00:21:03.484Z,96722.16
2023-03-25T00:23:34.519Z,96715.91
2023-03-25T00:26:04.542Z,96718.92
2023-03-25T00:28:35.829Z,96707.73
2023-03-25T00:31:08.456Z,96715.09
2023-03-25T00:33:38.409Z,96705.83
2023-03-25T00:36:08.799Z,96710.46
2023-03-25T00:38:44.436Z,96721.91
2023-03-25T00:41:51.989Z,96725.17
2023-03-25T00:44:34.644Z,96743.42
2023-03-25T00:47:04.576Z,96748.84
2023-03-25T00:49:34.483Z,96756.48
2023-03-25T00:52:06.465Z,96773.38
2023-03-25T00:54:39.106Z,96789.16
2023-03-25T00:57:21.765Z,96801.42
2023-03-25T00:59:59.875Z,96805.76
2023-03-25T01:05:50.416Z,96782.06
2023-03-25T01:08:23.194Z,96780.70
2023-03-25T01:10:54.805Z,96787.24
2023-03-25T01:13:26.981Z,96770.91
2023-03-25T01:15:58.516Z,96774.73
2023-03-25T01:18:33.628Z,96778.81
2023-03-25T01:21:39.124Z,96774.44
2023-03-25T01:25:15.400Z,96778.00
2023-03-25T01:27:45.359Z,96791.32
2023-03-25T01:30:29.717Z,96779.88
2023-03-25T01:33:26.551Z,96782.89
2023-03-25T01:36:30.638Z,96802.20
2023-03-25T01:39:42.279Z,96799.77
2023-03-25T01:42:13.882Z,96793.78
2023-03-25T01:45:11.552Z,96773.07
2023-03-25T01:48:13.405Z,96768.17
2023-03-25T01:54:07.774Z,96797.86
2023-03-25T01:56:52.607Z,96824.27
2023-03-25T01:59:22.213Z,96830.53
2023-03-25T02:01:54.878Z,96822.91
2023-03-25T02:04:28.024Z,96849.85
2023-03-25T02:06:58.629Z,96850.40
2023-03-25T02:09:28.760Z,96850.66
2023-03-25T02:12:00.852Z,96899.13
2023-03-25T02:14:35.927Z,96915.99
2023-03-25T02:17:18.056Z,96948.39
2023-03-25T02:20:22.170Z,96950.86
2023-03-25T02:23:11.174Z,96857.19
2023-03-25T02:26:08.999Z,96767.10
2023-03-25T02:28:57.022Z,96795.69
2023-03-25T02:31:29.675Z,96826.18
2023-03-25T02:34:14.731Z,96802.20
2023-03-25T02:37:04.273Z,96800.84
2023-03-25T02:40:26.897Z,96797.05
2023-03-25T02:43:06.250Z,96783.14
2023-03-25T02:45:57.439Z,96800.02
2023-03-25T02:48:34.691Z,96806.27
2023-03-25T02:51:15.080Z,96815.53
2023-03-25T02:53:57.558Z,96810.09
2023-03-25T02:56:27.911Z,96817.70
2023-03-25T02:58:58.450Z,96815.79
2023-03-25T03:01:29.628Z,96805.45
2023-03-25T03:04:00.183Z,96812.80
2023-03-25T03:06:30.937Z,96821.26
2023-03-25T03:09:27.028Z,96834.87
2023-03-25T03:12:27.819Z,96841.94
2023-03-25T03:15:19.112Z,96865.89
2023-03-25T03:18:19.145Z,96874.06
2023-03-25T03:20:59.695Z,96890.66
2023-03-25T03:23:33.207Z,96878.70
2023-03-25T03:26:22.551Z,96872.70
2023-03-25T03:28:56.180Z,96867.52
2023-03-25T03:31:48.855Z,96878.70
2023-03-25T03:34:11.683Z,96881.42
2023-03-25T03:36:50.461Z,96875.16
2023-03-25T03:39:42.991Z,96877.05
2023-03-25T03:42:46.905Z,96875.40
2023-03-25T03:45:41.023Z,96882.48
2023-03-25T03:51:13.324Z,96898.30
2023-03-25T03:56:44.592Z,96891.21
2023-03-25T03:59:17.591Z,96880.05
2023-03-25T04:01:48.584Z,96877.59
2023-03-25T04:04:21.075Z,96886.05
2023-03-25T04:07:17.005Z,96887.94
2023-03-25T04:10:05.212Z,96892.03
2023-03-25T04:12:50.325Z,96902.05
2023-03-25T04:15:33.052Z,96901.54
2023-03-25T04:18:38.540Z,96876.17
2023-03-25T04:24:47.918Z,96911.88
2023-03-25T04:27:52.147Z,96923.02
2023-03-25T04:30:40.101Z,96911.05
2023-03-25T04:33:33.087Z,96899.61
2023-03-25T04:38:52.730Z,96897.96
2023-03-25T04:41:24.346Z,96902.05
2023-03-25T04:43:55.273Z,96903.64
2023-03-25T04:46:25.851Z,96910.19
2023-03-25T04:49:04.871Z,96909.62
2023-03-25T04:51:58.570Z,96908.00
2023-03-25T04:55:27.374Z,96905.80
2023-03-25T04:58:01.290Z,96908.52
2023-03-25T05:04:04.012Z,96912.05
2023-03-25T05:06:55.145Z,96916.38
2023-03-25T05:12:44.763Z,96909.55
2023-03-25T05:16:11.979Z,96915.28
2023-03-25T05:18:47.640Z,96926.92
2023-03-25T05:22:02.177Z,96916.28
2023-03-25T05:24:28.368Z,96928.80
2023-03-25T05:26:58.543Z,96913.27
2023-03-25T05:29:28.489Z,96926.34
2023-03-25T05:31:59.346Z,96921.72
2023-03-25T05:34:31.385Z,96923.06
2023-03-25T05:37:01.676Z,96928.20
2023-03-25T05:39:50.890Z,96924.95
2023-03-25T05:45:45.919Z,96927.36
2023-03-25T05:51:50.952Z,96936.31
2023-03-25T05:54:30.752Z,96936.30
2023-03-25T05:57:02.115Z,96942.83
2023-03-25T05:59:32.530Z,96931.94
2023-03-25T06:02:02.960Z,96936.56
2023-03-25T06:04:34.688Z,96932.46
2023-03-25T06:07:23.830Z,96929.17
2023-03-25T06:09:58.660Z,96925.92
2023-03-25T06:12:49.013Z,96930.52
2023-03-25T06:15:40.966Z,96924.55
2023-03-25T06:18:11.297Z,96922.63
2023-03-25T06:20:47.654Z,96922.33
2023-03-25T06:23:18.161Z,96912.80
2023-03-25T06:25:49.409Z,96919.62
2023-03-25T06:28:22.815Z,96922.85
2023-03-25T06:31:32.155Z,96931.28
2023-03-25T06:33:57.648Z,96932.08
2023-03-25T06:36:44.088Z,96930.70
2023-03-25T06:39:15.805Z,96927.72
2023-03-25T06:41:47.851Z,96926.61
2023-03-25T06:44:24.680Z,96927.39
2023-03-25T06:46:53.020Z,96930.94
2023-03-25T06:49:24.342Z,96930.94
2023-03-25T06:51:55.614Z,96921.13
2023-03-25T07:04:48.751Z,96924.89
2023-03-25T07:07:25.531Z,96928.92
2023-03-25T07:13:10.063Z,96938.94
2023-03-25T07:15:59.399Z,96940.55
2023-03-25T07:18:22.976Z,96932.94
2023-03-25T07:20:54.287Z,96928.84
2023-03-25T07:23:24.586Z,96913.55
2023-03-25T07:25:55.903Z,96918.73
2023-03-25T07:28:43.758Z,96917.10
2023-03-25T07:31:14.360Z,96917.64
2023-03-25T07:34:06.243Z,96910.83
2023-03-25T07:37:16.593Z,96918.14
2023-03-25T07:40:07.817Z,96918.69
2023-03-25T07:43:10.750Z,96916.52
2023-03-25T07:49:03.564Z,96930.56
2023-03-25T07:55:06.259Z,96927.02
2023-03-25T07:57:24.575Z,96921.04
2023-03-25T07:59:55.724Z,96918.30
2023-03-25T08:02:26.862Z,96915.56
2023-03-25T08:04:58.253Z,96921.53
2023-03-25T08:07:29.637Z,96927.45
2023-03-25T08:10:02.891Z,96917.13
2023-03-25T08:12:32.863Z,96916.30
2023-03-25T08:15:02.815Z,96915.48
2023-03-25T08:17:33.109Z,96922.27
2023-03-25T08:20:04.785Z,96918.73
2023-03-25T08:22:34.906Z,96909.78
2023-03-25T08:25:04.985Z,96914.91
2023-03-25T08:27:34.918Z,96900.77
2023-03-25T08:30:05.748Z,96903.48
2023-03-25T08:35:49.357Z,96904.00
2023-03-25T08:38:22.877Z,96911.60
2023-03-25T08:40:54.670Z,96910.76
2023-03-25T08:43:25.857Z,96911.01
2023-03-25T08:49:30.516Z,96907.17
2023-03-25T08:55:29.345Z,96899.55
2023-03-25T08:58:05.484Z,96888.94
2023-03-25T09:00:36.683Z,96879.16
2023-03-25T09:03:07.728Z,96884.30
2023-03-25T09:05:39.837Z,96882.64
2023-03-25T09:08:10.866Z,96890.78
2023-03-25T09:10:41.081Z,96884.00
2023-03-25T09:13:11.460Z,96878.27
2023-03-25T09:15:41.732Z,96884.51
2023-03-25T09:18:11.793Z,96886.14
2023-03-25T09:20:42.040Z,96894.52
2023-03-25T09:23:12.510Z,96900.73
2023-03-25T09:25:46.321Z,96906.68
2023-03-25T09:28:29.447Z,96908.34
2023-03-25T09:31:12.873Z,96880.69
2023-03-25T09:33:43.696Z,96918.59
2023-03-25T09:36:13.819Z,96919.68
2023-03-25T09:38:43.862Z,96920.19
2023-03-25T09:41:37.493Z,96909.06
2023-03-25T09:44:26.610Z,96910.42
2023-03-25T09:49:57.813Z,96905.75
2023-03-25T09:52:56.156Z,96906.83
2023-03-25T09:55:29.174Z,96907.92
2023-03-25T09:58:28.556Z,96915.45
2023-03-25T10:01:37.570Z,96916.50
2023-03-25T10:04:45.586Z,96909.15
2023-03-25T10:07:33.584Z,96912.92
2023-03-25T10:10:59.567Z,96919.16
2023-03-25T10:13:54.678Z,96917.50
2023-03-25T10:17:05.425Z,96920.45
2023-03-25T10:20:14.909Z,96920.69
2023-03-25T10:23:05.616Z,96908.75
2023-03-25T10:25:46.519Z,96916.58
2023-03-25T10:28:46.211Z,96906.24
2023-03-25T10:31:38.425Z,96911.97
2023-03-25T10:37:51.931Z,96908.98
2023-03-25T10:47:06.043Z,96921.53
2023-03-25T10:50:09.840Z,96898.52
2023-03-25T10:53:15.171Z,96938.35
2023-03-25T10:55:56.376Z,96952.49
2023-03-25T10:59:20.111Z,96964.97
2023-03-25T11:02:02.643Z,96953.88
2023-03-25T11:05:01.175Z,96955.78
2023-03-25T11:08:18.511Z,96960.94
2023-03-25T11:11:19.744Z,96965.05
2023-03-25T11:14:04.716Z,96971.05
2023-03-25T11:20:27.333Z,96966.56
2023-03-25T11:23:33.256Z,96980.34
2023-03-25T11:29:15.694Z,96991.26
2023-03-25T11:31:49.021Z,96999.19
2023-03-25T11:37:35.430Z,96998.44
2023-03-25T11:40:10.031Z,97000.65
2023-03-25T11:42:50.449Z,97008.83
2023-03-25T11:45:43.491Z,97014.28
2023-03-25T11:48:21.808Z,97025.72
2023-03-25T11:50:59.707Z,97035.25
2023-03-25T11:53:30.075Z,97043.98
2023-03-25T11:56:05.192Z,97055.14
2023-03-25T11:58:38.764Z,97059.25
2023-03-25T12:01:19.215Z,97060.94
2023-03-25T12:03:43.229Z,97058.77
2023-03-25T12:06:20.932Z,97061.28
2023-03-25T12:09:00.538Z,97058.86
2023-03-25T12:11:50.987Z,97063.24
2023-03-25T12:14:35.385Z,97070.91
2023-03-25T12:17:33.626Z,97076.34
2023-03-25T12:20:26.087Z,97087.81
2023-03-25T12:23:01.458Z,97098.98
2023-03-25T12:25:54.183Z,97103.42
2023-03-25T12:29:18.785Z,97114.35
2023-03-25T12:31:51.776Z,97109.28
2023-03-25T12:34:52.613Z,97112.63
2023-03-25T12:40:45.208Z,97129.84
2023-03-25T12:43:48.062Z,97132.61
2023-03-25T12:46:41.759Z,97136.20
2023-03-25T12:49:41.095Z,97136.28
2023-03-25T12:52:15.231Z,97143.08
2023-03-25T12:55:02.603Z,97154.86
2023-03-25T12:58:05.299Z,97160.63
2023-03-25T13:00:40.662Z,97164.73
2023-03-25T13:03:31.497Z,97165.30
2023-03-25T13:06:16.089Z,97165.05
2023-03-25T13:08:57.726Z,97174.33
2023-03-25T13:11:39.457Z,97176.26
2023-03-25T13:14:12.286Z,97181.72
2023-03-25T13:16:42.241Z,97192.63
2023-03-25T13:19:19.723Z,97196.47
2023-03-25T13:21:53.508Z,97195.97
2023-03-25T13:24:25.451Z,97203.31
2023-03-25T13:26:56.441Z,97214.83
2023-03-25T13:29:46.620Z,97218.94
2023-03-25T13:32:31.136Z,97216.76
2023-03-25T13:35:15.708Z,97222.52
2023-03-25T13:37:51.411Z,97234.52
2023-03-25T13:40:26.955Z,97237.27
2023-03-25T13:43:02.688Z,97244.09
2023-03-25T13:45:38.529Z,97235.11
2023-03-25T13:48:27.046Z,97238.41
2023-03-25T13:50:59.186Z,97237.61
2023-03-25T13:53:54.263Z,97244.98
2023-03-25T13:56:43.154Z,97239.84
2023-03-25T13:59:35.125Z,97240.92
2023-03-25T14:02:25.446Z,97250.77
2023-03-25T14:05:04.835Z,97242.06
2023-03-25T14:08:00.100Z,97250.50
2023-03-25T14:11:01.115Z,97249.69
2023-03-25T14:13:33.824Z,97253.22
2023-03-25T14:16:11.986Z,97255.40
2023-03-25T14:18:51.124Z,97253.52
2023-03-25T14:21:26.891Z,97248.62
2023-03-25T14:24:20.686Z,97258.14
2023-03-25T14:26:52.592Z,97263.59
2023-03-25T14:29:28.123Z,97263.86
2023-03-25T14:32:04.799Z,97257.87
2023-03-25T14:34:34.860Z,97256.52
2023-03-25T14:37:11.175Z,97254.34
2023-03-25T14:39:41.661Z,97263.86
2023-03-25T14:42:31.385Z,97263.08
2023-03-25T14:45:36.210Z,97262.53
2023-03-25T14:48:16.107Z,97263.34
2023-03-25T14:50:41.558Z,97265.52
2023-03-25T14:53:14.335Z,97261.71
2023-03-25T14:55:45.929Z,97269.34
2023-03-25T14:58:24.638Z,97270.70
2023-03-25T15:00:56.939Z,97280.77
2023-03-25T15:03:34.343Z,97279.66
2023-03-25T15:06:04.975Z,97278.55
2023-03-25T15:08:37.662Z,97279.63
2023-03-25T15:11:18.168Z,97283.44
2023-03-25T15:13:51.458Z,97279.08
2023-03-25T15:16:40.297Z,97280.22
2023-03-25T15:19:13.135Z,97282.42
2023-03-25T15:22:05.365Z,97293.86
2023-03-25T15:24:40.664Z,97288.66
2023-03-25T15:27:25.067Z,97285.94
2023-03-25T15:30:15.480Z,97290.84
2023-03-25T15:32:53.753Z,97288.66
2023-03-25T15:35:36.303Z,97284.31
2023-03-25T15:38:18.480Z,97282.64
2023-03-25T15:41:16.610Z,97287.58
2023-03-25T15:44:01.035Z,97281.02
2023-03-25T15:46:42.464Z,97281.28
2023-03-25T15:49:20.949Z,97280.20
2023-03-25T15:52:03.222Z,97277.17
2023-03-25T15:54:39.169Z,97278.02
2023-03-25T15:57:30.290Z,97279.90
2023-03-25T16:00:13.418Z,97284.53
2023-03-25T16:03:09.795Z,97286.16
2023-03-25T16:05:40.734Z,97288.88
2023-03-25T16:08:19.263Z,97291.04
2023-03-25T16:10:50.167Z,97286.66
2023-03-25T16:13:24.496Z,97290.22
2023-03-25T16:15:56.180Z,97288.56
2023-03-25T16:18:26.239Z,97284.47
2023-03-25T16:20:59.279Z,97284.47
2023-03-25T16:23:29.996Z,97274.67
2023-03-25T16:26:00.960Z,97276.64
2023-03-25T16:28:36.083Z,97274.78
2023-03-25T16:31:06.027Z,97275.62
2023-03-25T16:33:40.711Z,97273.47
2023-03-25T16:36:13.063Z,97272.37
2023-03-25T16:38:43.127Z,97270.22
2023-03-25T16:41:16.617Z,97269.95
2023-03-25T16:43:45.982Z,97274.33
2023-03-25T16:46:16.549Z,97274.90
2023-03-25T16:48:56.728Z,97276.50
2023-03-25T16:51:32.379Z,97278.91
2023-03-25T16:54:02.341Z,97289.50
2023-03-25T16:56:34.219Z,97291.44
2023-03-25T16:59:21.690Z,97294.92
2023-03-25T17:02:00.948Z,97296.55
2023-03-25T17:04:39.082Z,97308.23
2023-03-25T17:07:12.728Z,97312.84
2023-03-25T17:10:07.663Z,97312.27
2023-03-25T17:12:37.643Z,97315.78
2023-03-25T17:15:09.927Z,97317.96
2023-03-25T17:17:46.961Z,97312.52
2023-03-25T17:20:28.154Z,97314.94
2023-03-25T17:23:11.762Z,97324.19
2023-03-25T17:25:55.545Z,97312.98
2023-03-25T17:28:37.939Z,97330.42
2023-03-25T17:31:28.591Z,97328.52
2023-03-25T17:34:09.611Z,97327.43
2023-03-25T17:36:43.658Z,97327.43
2023-03-25T17:39:24.275Z,97317.06
2023-03-25T17:41:57.117Z,97318.14
2023-03-25T17:44:27.220Z,97317.33
2023-03-25T17:46:57.236Z,97309.71
2023-03-25T17:49:27.227Z,97305.88
2023-03-25T17:51:58.694Z,97303.15
2023-03-25T17:54:30.493Z,97306.42
2023-03-25T17:57:01.343Z,97298.52
2023-03-25T17:59:32.214Z,97297.73
2023-03-25T18:02:03.547Z,97295.83
2023-03-25T18:04:33.500Z,97293.98
2023-03-25T18:07:04.080Z,97292.10
2023-03-25T18:09:33.988Z,97284.75
2023-03-25T18:12:03.821Z,97277.67
2023-03-25T18:14:34.178Z,97273.08
2023-03-25T18:17:04.779Z,97264.06
2023-03-25T18:19:35.546Z,97254.29
2023-03-25T18:22:19.971Z,97259.19
2023-03-25T18:24:38.555Z,97245.03
2023-03-25T18:27:08.750Z,97238.77
2023-03-25T18:29:40.098Z,97236.86
2023-03-25T18:32:10.241Z,97236.86
2023-03-25T18:34:40.118Z,97237.41
2023-03-25T18:37:11.798Z,97236.86
2023-03-25T18:39:41.931Z,97226.52
2023-03-25T18:42:11.855Z,97206.41
2023-03-25T18:44:42.970Z,97217.81
2023-03-25T18:47:13.228Z,97220.27
2023-03-25T18:49:43.485Z,97221.89
2023-03-25T18:52:13.824Z,97226.83
2023-03-25T18:54:43.734Z,97225.98
2023-03-25T18:57:13.712Z,97229.25
2023-03-25T18:59:44.107Z,97230.34
2023-03-25T19:02:14.449Z,97217.55
2023-03-25T19:04:59.709Z,97211.80
2023-03-25T19:07:16.083Z,97211.83
2023-03-25T19:09:46.023Z,97202.30
2023-03-25T19:12:15.976Z,97204.17
2023-03-25T19:14:45.921Z,97200.39
2023-03-25T19:17:15.850Z,97192.47
2023-03-25T19:19:45.828Z,97192.47
2023-03-25T19:22:17.284Z,97189.51
2023-03-25T19:24:47.698Z,97185.12
2023-03-25T19:27:17.617Z,97193.29
2023-03-25T19:29:47.809Z,97185.42
2023-03-25T19:32:17.979Z,97182.70
2023-03-25T19:34:49.330Z,97176.95
2023-03-25T19:37:19.693Z,97176.45
2023-03-25T19:39:50.353Z,97175.89
2023-03-25T19:42:20.324Z,97176.71
2023-03-25T19:44:50.477Z,97171.52
2023-03-25T19:47:20.375Z,97169.09
2023-03-25T19:49:50.334Z,97164.20
2023-03-25T19:52:21.212Z,97168.80
2023-03-25T19:54:51.920Z,97162.28
2023-03-25T19:57:22.489Z,97143.77
2023-03-25T19:59:53.027Z,97150.04
2023-03-25T20:02:23.038Z,97150.31
2023-03-25T20:04:54.122Z,97140.52
2023-03-25T20:07:25.486Z,97139.95
2023-03-25T20:09:55.372Z,97146.22
2023-03-25T20:12:25.818Z,97144.31
2023-03-25T20:14:55.651Z,97141.08
2023-03-25T20:17:25.927Z,97143.80
2023-03-25T20:19:56.164Z,97138.88
2023-03-25T20:22:26.390Z,97132.91
2023-03-25T20:24:57.378Z,97134.27
2023-03-25T20:27:27.653Z,97130.19
2023-03-25T20:29:57.752Z,97127.17
2023-03-25T20:32:37.691Z,97123.09
2023-03-25T20:34:59.366Z,97123.09
2023-03-25T20:37:29.362Z,97126.63
2023-03-25T20:39:59.305Z,97124.20
2023-03-25T20:42:29.422Z,97120.66
2023-03-25T20:44:59.392Z,97111.95
2023-03-25T20:47:31.420Z,97115.48
2023-03-25T20:50:02.463Z,97109.23
2023-03-25T20:52:32.476Z,97105.41
2023-03-25T20:55:02.472Z,97099.42
2023-03-25T20:57:32.747Z,97092.62
2023-03-25T21:00:03.739Z,97095.07
2023-03-25T21:02:34.785Z,97094.55
2023-03-25T21:05:06.358Z,97086.92
2023-03-25T21:07:37.684Z,97083.11
2023-03-25T21:10:08.922Z,97084.77
2023-03-25T21:12:59.654Z,97084.22
2023-03-25T21:15:30.930Z,97079.34
2023-03-25T21:18:23.809Z,97071.98
2023-03-25T21:20:54.420Z,97068.98
2023-03-25T21:23:25.966Z,97067.63
2023-03-25T21:26:00.855Z,97062.73
2023-03-25T21:28:31.377Z,97060.83
2023-03-25T21:31:04.208Z,97061.64
2023-03-25T21:33:39.804Z,97037.14
2023-03-25T21:36:11.444Z,97045.63
2023-03-25T21:38:41.671Z,97045.89
2023-03-25T21:41:11.580Z,97043.98
2023-03-25T21:43:46.021Z,97042.36
2023-03-25T21:46:16.410Z,97034.99
2023-03-25T21:48:47.515Z,97043.73
2023-03-25T21:51:17.818Z,97037.76
2023-03-25T21:53:47.865Z,97037.76
2023-03-25T21:56:20.273Z,97036.14
2023-03-25T21:58:50.439Z,97038.32
2023-03-25T22:01:23.512Z,97041.87
2023-03-25T22:03:57.369Z,97040.51
2023-03-25T22:06:27.809Z,97038.59
2023-03-25T22:09:01.755Z,97034.26
2023-03-25T22:11:32.614Z,97029.89
2023-03-25T22:14:05.223Z,97035.34
2023-03-25T22:16:36.084Z,97033.44
2023-03-25T22:19:06.962Z,97026.38
2023-03-25T22:21:38.119Z,97018.47
2023-03-25T22:24:08.617Z,97017.67
2023-03-25T22:26:40.108Z,97013.87
2023-03-25T22:29:10.213Z,97008.98
2023-03-25T22:31:41.591Z,97008.19
2023-03-25T22:34:13.071Z,97004.91
2023-03-25T22:36:44.036Z,97008.20
2023-03-25T22:39:15.522Z,97008.20
2023-03-25T22:41:45.487Z,97008.77
2023-03-25T22:44:16.832Z,97010.66
2023-03-25T22:46:50.455Z,97004.14
2023-03-25T22:49:20.796Z,97004.14
2023-03-25T22:51:50.734Z,97005.22
2023-03-25T22:54:20.747Z,97005.52
2023-03-25T22:56:50.876Z,97010.12
2023-03-25T22:59:21.068Z,97002.52
2023-03-25T23:01:51.276Z,97011.80
2023-03-25T23:04:21.366Z,97014.23
2023-03-25T23:07:00.929Z,97022.41
2023-03-25T23:09:24.223Z,97023.52
2023-03-25T23:11:54.210Z,97023.52
2023-03-25T23:14:24.318Z,97032.77
2023-03-25T23:16:54.410Z,97033.06
2023-03-25T23:19:24.320Z,97037.67
2023-03-25T23:21:54.987Z,97040.70
2023-03-25T23:24:24.899Z,97042.06
2023-03-25T23:26:54.817Z,97053.23
2023-03-25T23:29:24.900Z,97052.68
2023-03-25T23:31:55.047Z,97051.87
2023-03-25T23:34:25.044Z,97062.23
2023-03-25T23:36:54.929Z,97057.59
2023-03-25T23:39:24.899Z,97058.70
2023-03-25T23:41:54.945Z,97060.33
2023-03-25T23:44:24.840Z,97059.26
2023-03-25T23:46:54.795Z,97058.97
2023-03-25T23:49:26.637Z,97059.27
2023-03-25T23:51:56.829Z,97058.98
2023-03-25T23:54:48.774Z,97057.62
2023-03-25T23:57:19.325Z,97056.81
2023-03-25T23:59:49.606Z,97052.47
